sensor_id;sensor_type;location;lat;lon;timestamp;P1;durP1;ratioP1;P2;durP2;ratioP2
73938;SDS011;62291;47.554;8.504;2022-07-18T00:01:31;3.83;;;3.25;;
73938;SDS011;62291;47.554;8.504;2022-07-18T00:03:57;3.78;;;3.08;;
73938;SDS011;62291;47.554;8.504;2022-07-18T00:06:23;8.85;;;3.75;;
73938;SDS011;62291;47.554;8.504;2022-07-18T00:08:49;3.53;;;3.03;;
73938;SDS011;62291;47.554;8.504;2022-07-18T00:11:15;3.50;;;3.10;;
73938;SDS011;62291;47.554;8.504;2022-07-18T00:13:41;5.05;;;3.72;;
73938;SDS011;62291;47.554;8.504;2022-07-18T00:16:07;6.20;;;3.10;;
73938;SDS011;62291;47.554;8.504;2022-07-18T00:18:33;3.58;;;2.90;;
73938;SDS011;62291;47.554;8.504;2022-07-18T00:20:58;4.97;;;3.28;;
73938;SDS011;62291;47.554;8.504;2022-07-18T00:23:24;5.72;;;3.03;;
73938;SDS011;62291;47.554;8.504;2022-07-18T00:25:50;3.95;;;2.78;;
73938;SDS011;62291;47.554;8.504;2022-07-18T00:28:15;5.72;;;3.55;;
73938;SDS011;62291;47.554;8.504;2022-07-18T00:30:41;3.30;;;3.00;;
73938;SDS011;62291;47.554;8.504;2022-07-18T00:33:07;4.38;;;3.40;;
73938;SDS011;62291;47.554;8.504;2022-07-18T00:35:33;4.03;;;2.90;;
73938;SDS011;62291;47.554;8.504;2022-07-18T00:37:59;4.13;;;3.47;;
73938;SDS011;62291;47.554;8.504;2022-07-18T00:40:27;3.67;;;3.38;;
73938;SDS011;62291;47.554;8.504;2022-07-18T00:42:53;8.23;;;3.40;;
73938;SDS011;62291;47.554;8.504;2022-07-18T00:45:18;5.50;;;3.92;;
73938;SDS011;62291;47.554;8.504;2022-07-18T00:47:44;4.63;;;3.00;;
73938;SDS011;62291;47.554;8.504;2022-07-18T00:50:10;5.30;;;2.97;;
73938;SDS011;62291;47.554;8.504;2022-07-18T00:52:36;5.47;;;3.08;;
73938;SDS011;62291;47.554;8.504;2022-07-18T00:55:04;4.82;;;2.90;;
73938;SDS011;62291;47.554;8.504;2022-07-18T00:57:33;4.93;;;2.90;;
73938;SDS011;62291;47.554;8.504;2022-07-18T00:59:59;4.53;;;3.10;;
73938;SDS011;62291;47.554;8.504;2022-07-18T01:02:43;7.35;;;3.17;;
73938;SDS011;62291;47.554;8.504;2022-07-18T01:05:09;4.97;;;3.20;;
73938;SDS011;62291;47.554;8.504;2022-07-18T01:07:35;3.63;;;2.92;;
73938;SDS011;62291;47.554;8.504;2022-07-18T01:10:03;4.90;;;2.75;;
73938;SDS011;62291;47.554;8.504;2022-07-18T01:12:29;5.32;;;2.90;;
73938;SDS011;62291;47.554;8.504;2022-07-18T01:14:55;3.88;;;3.10;;
73938;SDS011;62291;47.554;8.504;2022-07-18T01:17:23;3.50;;;3.20;;
73938;SDS011;62291;47.554;8.504;2022-07-18T01:19:49;5.65;;;3.30;;
73938;SDS011;62291;47.554;8.504;2022-07-18T01:22:16;4.28;;;3.88;;
73938;SDS011;62291;47.554;8.504;2022-07-18T01:24:44;4.63;;;3.63;;
73938;SDS011;62291;47.554;8.504;2022-07-18T01:27:17;5.85;;;3.95;;
73938;SDS011;62291;47.554;8.504;2022-07-18T01:29:46;5.82;;;3.80;;
73938;SDS011;62291;47.554;8.504;2022-07-18T01:32:13;3.40;;;2.97;;
73938;SDS011;62291;47.554;8.504;2022-07-18T01:34:39;4.00;;;3.58;;
73938;SDS011;62291;47.554;8.504;2022-07-18T01:37:06;5.00;;;3.03;;
73938;SDS011;62291;47.554;8.504;2022-07-18T01:39:32;6.20;;;3.22;;
73938;SDS011;62291;47.554;8.504;2022-07-18T01:42:00;3.35;;;3.00;;
73938;SDS011;62291;47.554;8.504;2022-07-18T01:44:27;4.43;;;3.70;;
73938;SDS011;62291;47.554;8.504;2022-07-18T01:46:53;4.90;;;3.30;;
73938;SDS011;62291;47.554;8.504;2022-07-18T01:49:19;4.43;;;3.22;;
73938;SDS011;62291;47.554;8.504;2022-07-18T01:51:50;4.40;;;3.75;;
73938;SDS011;62291;47.554;8.504;2022-07-18T01:54:21;3.65;;;3.35;;
73938;SDS011;62291;47.554;8.504;2022-07-18T01:56:52;5.20;;;3.58;;
73938;SDS011;62291;47.554;8.504;2022-07-18T01:59:18;3.35;;;3.05;;
73938;SDS011;62291;47.554;8.504;2022-07-18T02:01:46;3.40;;;3.10;;
73938;SDS011;62291;47.554;8.504;2022-07-18T02:04:12;5.75;;;3.70;;
73938;SDS011;62291;47.554;8.504;2022-07-18T02:06:38;5.53;;;3.97;;
73938;SDS011;62291;47.554;8.504;2022-07-18T02:09:05;3.90;;;3.50;;
73938;SDS011;62291;47.554;8.504;2022-07-18T02:11:32;4.13;;;3.50;;
73938;SDS011;62291;47.554;8.504;2022-07-18T02:13:58;5.93;;;3.30;;
73938;SDS011;62291;47.554;8.504;2022-07-18T02:16:24;5.75;;;3.47;;
73938;SDS011;62291;47.554;8.504;2022-07-18T02:18:49;6.05;;;3.47;;
73938;SDS011;62291;47.554;8.504;2022-07-18T02:21:15;4.00;;;3.58;;
73938;SDS011;62291;47.554;8.504;2022-07-18T02:23:41;7.32;;;3.85;;
73938;SDS011;62291;47.554;8.504;2022-07-18T02:26:08;6.70;;;3.70;;
73938;SDS011;62291;47.554;8.504;2022-07-18T02:28:34;4.70;;;3.47;;
73938;SDS011;62291;47.554;8.504;2022-07-18T02:31:00;4.75;;;3.97;;
73938;SDS011;62291;47.554;8.504;2022-07-18T02:33:26;4.03;;;3.33;;
73938;SDS011;62291;47.554;8.504;2022-07-18T02:35:51;5.38;;;3.53;;
73938;SDS011;62291;47.554;8.504;2022-07-18T02:38:17;4.78;;;3.92;;
73938;SDS011;62291;47.554;8.504;2022-07-18T02:40:43;4.22;;;3.83;;
73938;SDS011;62291;47.554;8.504;2022-07-18T02:43:09;6.13;;;4.03;;
73938;SDS011;62291;47.554;8.504;2022-07-18T02:45:34;4.53;;;4.13;;
73938;SDS011;62291;47.554;8.504;2022-07-18T02:48:00;4.20;;;3.65;;
73938;SDS011;62291;47.554;8.504;2022-07-18T02:50:26;3.80;;;3.38;;
73938;SDS011;62291;47.554;8.504;2022-07-18T02:52:52;4.68;;;3.72;;
73938;SDS011;62291;47.554;8.504;2022-07-18T02:55:17;4.90;;;4.40;;
73938;SDS011;62291;47.554;8.504;2022-07-18T02:57:43;5.85;;;3.80;;
73938;SDS011;62291;47.554;8.504;2022-07-18T03:00:10;6.47;;;4.30;;
73938;SDS011;62291;47.554;8.504;2022-07-18T03:02:37;4.10;;;3.67;;
73938;SDS011;62291;47.554;8.504;2022-07-18T03:05:03;4.97;;;3.90;;
73938;SDS011;62291;47.554;8.504;2022-07-18T03:07:30;4.80;;;4.10;;
73938;SDS011;62291;47.554;8.504;2022-07-18T03:09:56;5.13;;;4.00;;
73938;SDS011;62291;47.554;8.504;2022-07-18T03:12:22;6.30;;;3.90;;
73938;SDS011;62291;47.554;8.504;2022-07-18T03:14:48;6.65;;;4.47;;
73938;SDS011;62291;47.554;8.504;2022-07-18T03:17:15;8.00;;;4.53;;
73938;SDS011;62291;47.554;8.504;2022-07-18T03:19:40;5.93;;;4.63;;
73938;SDS011;62291;47.554;8.504;2022-07-18T03:22:06;5.80;;;4.47;;
73938;SDS011;62291;47.554;8.504;2022-07-18T03:24:31;7.40;;;4.97;;
73938;SDS011;62291;47.554;8.504;2022-07-18T03:26:57;6.38;;;4.57;;
73938;SDS011;62291;47.554;8.504;2022-07-18T03:29:23;5.45;;;4.68;;
73938;SDS011;62291;47.554;8.504;2022-07-18T03:31:49;4.40;;;4.00;;
73938;SDS011;62291;47.554;8.504;2022-07-18T03:34:15;5.43;;;4.72;;
73938;SDS011;62291;47.554;8.504;2022-07-18T03:36:40;6.45;;;5.28;;
73938;SDS011;62291;47.554;8.504;2022-07-18T03:39:07;5.75;;;4.85;;
73938;SDS011;62291;47.554;8.504;2022-07-18T03:41:33;9.20;;;5.60;;
73938;SDS011;62291;47.554;8.504;2022-07-18T03:43:59;5.55;;;4.97;;
73938;SDS011;62291;47.554;8.504;2022-07-18T03:46:25;8.73;;;5.57;;
73938;SDS011;62291;47.554;8.504;2022-07-18T03:48:51;6.22;;;5.63;;
73938;SDS011;62291;47.554;8.504;2022-07-18T03:51:17;6.53;;;5.68;;
73938;SDS011;62291;47.554;8.504;2022-07-18T03:53:42;7.75;;;5.28;;
73938;SDS011;62291;47.554;8.504;2022-07-18T03:56:08;7.85;;;6.25;;
73938;SDS011;62291;47.554;8.504;2022-07-18T03:58:34;6.82;;;5.70;;
73938;SDS011;62291;47.554;8.504;2022-07-18T04:00:59;6.50;;;5.38;;
73938;SDS011;62291;47.554;8.504;2022-07-18T04:03:25;6.30;;;4.53;;
73938;SDS011;62291;47.554;8.504;2022-07-18T04:05:51;6.63;;;5.07;;
73938;SDS011;62291;47.554;8.504;2022-07-18T04:08:17;5.20;;;4.70;;
73938;SDS011;62291;47.554;8.504;2022-07-18T04:10:43;7.85;;;5.50;;
73938;SDS011;62291;47.554;8.504;2022-07-18T04:13:09;6.13;;;5.18;;
73938;SDS011;62291;47.554;8.504;2022-07-18T04:15:35;6.03;;;4.55;;
73938;SDS011;62291;47.554;8.504;2022-07-18T04:18:02;5.93;;;5.32;;
73938;SDS011;62291;47.554;8.504;2022-07-18T04:20:29;7.50;;;6.78;;
73938;SDS011;62291;47.554;8.504;2022-07-18T04:22:56;6.80;;;5.00;;
73938;SDS011;62291;47.554;8.504;2022-07-18T04:25:24;5.35;;;4.63;;
73938;SDS011;62291;47.554;8.504;2022-07-18T04:27:51;7.25;;;4.80;;
73938;SDS011;62291;47.554;8.504;2022-07-18T04:30:19;4.72;;;4.15;;
73938;SDS011;62291;47.554;8.504;2022-07-18T04:32:47;6.53;;;4.63;;
73938;SDS011;62291;47.554;8.504;2022-07-18T04:35:13;7.75;;;4.18;;
73938;SDS011;62291;47.554;8.504;2022-07-18T04:37:39;5.53;;;4.22;;
73938;SDS011;62291;47.554;8.504;2022-07-18T04:40:06;10.05;;;4.35;;
73938;SDS011;62291;47.554;8.504;2022-07-18T04:42:34;4.50;;;3.70;;
73938;SDS011;62291;47.554;8.504;2022-07-18T04:45:00;6.47;;;4.00;;
73938;SDS011;62291;47.554;8.504;2022-07-18T04:47:26;8.27;;;3.90;;
73938;SDS011;62291;47.554;8.504;2022-07-18T04:49:52;5.47;;;3.50;;
73938;SDS011;62291;47.554;8.504;2022-07-18T04:52:18;5.38;;;3.55;;
73938;SDS011;62291;47.554;8.504;2022-07-18T04:54:44;5.38;;;3.40;;
73938;SDS011;62291;47.554;8.504;2022-07-18T04:57:10;4.57;;;3.83;;
73938;SDS011;62291;47.554;8.504;2022-07-18T04:59:46;5.85;;;4.13;;
73938;SDS011;62291;47.554;8.504;2022-07-18T05:02:11;5.50;;;4.13;;
73938;SDS011;62291;47.554;8.504;2022-07-18T05:04:37;4.55;;;4.15;;
73938;SDS011;62291;47.554;8.504;2022-07-18T05:07:04;4.90;;;4.40;;
73938;SDS011;62291;47.554;8.504;2022-07-18T05:09:31;5.63;;;4.15;;
73938;SDS011;62291;47.554;8.504;2022-07-18T05:11:58;4.40;;;3.97;;
73938;SDS011;62291;47.554;8.504;2022-07-18T05:14:24;5.13;;;3.75;;
73938;SDS011;62291;47.554;8.504;2022-07-18T05:16:50;5.70;;;4.55;;
73938;SDS011;62291;47.554;8.504;2022-07-18T05:19:15;5.68;;;4.43;;
73938;SDS011;62291;47.554;8.504;2022-07-18T05:21:42;4.82;;;4.32;;
73938;SDS011;62291;47.554;8.504;2022-07-18T05:24:08;8.20;;;4.35;;
73938;SDS011;62291;47.554;8.504;2022-07-18T05:26:34;4.63;;;4.22;;
73938;SDS011;62291;47.554;8.504;2022-07-18T05:29:00;5.28;;;3.92;;
73938;SDS011;62291;47.554;8.504;2022-07-18T05:31:25;4.72;;;4.25;;
73938;SDS011;62291;47.554;8.504;2022-07-18T05:33:51;5.50;;;4.50;;
73938;SDS011;62291;47.554;8.504;2022-07-18T05:36:17;4.57;;;4.18;;
73938;SDS011;62291;47.554;8.504;2022-07-18T05:38:42;7.90;;;4.70;;
73938;SDS011;62291;47.554;8.504;2022-07-18T05:41:08;5.60;;;4.07;;
73938;SDS011;62291;47.554;8.504;2022-07-18T05:43:34;5.80;;;4.10;;
73938;SDS011;62291;47.554;8.504;2022-07-18T05:46:00;7.03;;;4.63;;
73938;SDS011;62291;47.554;8.504;2022-07-18T05:48:25;8.93;;;4.32;;
73938;SDS011;62291;47.554;8.504;2022-07-18T05:50:51;7.25;;;4.18;;
73938;SDS011;62291;47.554;8.504;2022-07-18T05:53:17;7.95;;;4.82;;
73938;SDS011;62291;47.554;8.504;2022-07-18T05:55:42;9.07;;;4.05;;
73938;SDS011;62291;47.554;8.504;2022-07-18T05:58:08;12.38;;;4.50;;
73938;SDS011;62291;47.554;8.504;2022-07-18T06:00:34;16.83;;;4.85;;
73938;SDS011;62291;47.554;8.504;2022-07-18T06:02:59;18.13;;;5.07;;
73938;SDS011;62291;47.554;8.504;2022-07-18T06:05:25;10.73;;;4.30;;
73938;SDS011;62291;47.554;8.504;2022-07-18T06:07:52;13.63;;;5.35;;
73938;SDS011;62291;47.554;8.504;2022-07-18T06:10:19;13.02;;;5.95;;
73938;SDS011;62291;47.554;8.504;2022-07-18T06:12:44;18.45;;;5.18;;
73938;SDS011;62291;47.554;8.504;2022-07-18T06:15:10;19.80;;;5.00;;
73938;SDS011;62291;47.554;8.504;2022-07-18T06:17:36;22.55;;;4.95;;
73938;SDS011;62291;47.554;8.504;2022-07-18T06:20:02;23.38;;;5.30;;
73938;SDS011;62291;47.554;8.504;2022-07-18T06:22:30;21.10;;;5.15;;
73938;SDS011;62291;47.554;8.504;2022-07-18T06:24:56;12.00;;;4.45;;
73938;SDS011;62291;47.554;8.504;2022-07-18T06:27:21;9.40;;;3.88;;
73938;SDS011;62291;47.554;8.504;2022-07-18T06:29:47;6.38;;;4.03;;
73938;SDS011;62291;47.554;8.504;2022-07-18T06:32:12;6.95;;;3.80;;
73938;SDS011;62291;47.554;8.504;2022-07-18T06:34:38;5.40;;;3.80;;
73938;SDS011;62291;47.554;8.504;2022-07-18T06:37:04;8.68;;;3.90;;
73938;SDS011;62291;47.554;8.504;2022-07-18T06:39:29;8.63;;;3.90;;
73938;SDS011;62291;47.554;8.504;2022-07-18T06:41:55;17.67;;;7.82;;
73938;SDS011;62291;47.554;8.504;2022-07-18T06:44:24;5.25;;;3.38;;
73938;SDS011;62291;47.554;8.504;2022-07-18T06:46:49;5.20;;;3.30;;
73938;SDS011;62291;47.554;8.504;2022-07-18T06:49:17;6.30;;;3.60;;
73938;SDS011;62291;47.554;8.504;2022-07-18T06:51:43;5.75;;;3.60;;
73938;SDS011;62291;47.554;8.504;2022-07-18T06:54:08;3.92;;;3.38;;
73938;SDS011;62291;47.554;8.504;2022-07-18T06:56:34;5.43;;;3.55;;
73938;SDS011;62291;47.554;8.504;2022-07-18T06:59:00;7.28;;;3.10;;
73938;SDS011;62291;47.554;8.504;2022-07-18T07:01:26;6.97;;;3.05;;
73938;SDS011;62291;47.554;8.504;2022-07-18T07:03:52;7.25;;;3.10;;
73938;SDS011;62291;47.554;8.504;2022-07-18T07:06:17;4.15;;;3.50;;
73938;SDS011;62291;47.554;8.504;2022-07-18T07:08:43;4.85;;;3.13;;
73938;SDS011;62291;47.554;8.504;2022-07-18T07:11:09;7.18;;;2.90;;
73938;SDS011;62291;47.554;8.504;2022-07-18T07:13:35;4.63;;;3.15;;
73938;SDS011;62291;47.554;8.504;2022-07-18T07:16:00;4.53;;;3.28;;
73938;SDS011;62291;47.554;8.504;2022-07-18T07:18:26;7.90;;;2.90;;
73938;SDS011;62291;47.554;8.504;2022-07-18T07:20:52;4.88;;;2.60;;
73938;SDS011;62291;47.554;8.504;2022-07-18T07:23:17;8.05;;;3.03;;
73938;SDS011;62291;47.554;8.504;2022-07-18T07:25:43;8.13;;;2.95;;
73938;SDS011;62291;47.554;8.504;2022-07-18T07:28:09;4.63;;;2.80;;
73938;SDS011;62291;47.554;8.504;2022-07-18T07:30:34;4.22;;;2.70;;
73938;SDS011;62291;47.554;8.504;2022-07-18T07:33:00;4.60;;;2.58;;
73938;SDS011;62291;47.554;8.504;2022-07-18T07:35:27;7.38;;;2.90;;
73938;SDS011;62291;47.554;8.504;2022-07-18T07:37:54;3.88;;;2.78;;
73938;SDS011;62291;47.554;8.504;2022-07-18T07:40:22;5.40;;;2.60;;
73938;SDS011;62291;47.554;8.504;2022-07-18T07:42:50;6.22;;;2.78;;
73938;SDS011;62291;47.554;8.504;2022-07-18T07:45:16;3.00;;;2.63;;
73938;SDS011;62291;47.554;8.504;2022-07-18T07:47:43;3.50;;;2.67;;
73938;SDS011;62291;47.554;8.504;2022-07-18T07:50:09;4.32;;;3.55;;
73938;SDS011;62291;47.554;8.504;2022-07-18T07:52:36;7.60;;;2.67;;
73938;SDS011;62291;47.554;8.504;2022-07-18T07:55:03;3.00;;;2.70;;
73938;SDS011;62291;47.554;8.504;2022-07-18T07:57:29;3.83;;;2.60;;
73938;SDS011;62291;47.554;8.504;2022-07-18T07:59:55;5.32;;;2.60;;
73938;SDS011;62291;47.554;8.504;2022-07-18T08:02:21;3.28;;;2.38;;
73938;SDS011;62291;47.554;8.504;2022-07-18T08:04:46;4.82;;;2.83;;
73938;SDS011;62291;47.554;8.504;2022-07-18T08:07:12;5.18;;;2.70;;
73938;SDS011;62291;47.554;8.504;2022-07-18T08:09:37;10.10;;;6.22;;
73938;SDS011;62291;47.554;8.504;2022-07-18T08:12:03;4.10;;;3.55;;
73938;SDS011;62291;47.554;8.504;2022-07-18T08:14:29;6.00;;;2.53;;
73938;SDS011;62291;47.554;8.504;2022-07-18T08:16:58;3.80;;;2.75;;
73938;SDS011;62291;47.554;8.504;2022-07-18T08:19:24;6.82;;;2.72;;
73938;SDS011;62291;47.554;8.504;2022-07-18T08:21:50;4.50;;;2.72;;
73938;SDS011;62291;47.554;8.504;2022-07-18T08:24:15;8.45;;;2.92;;
73938;SDS011;62291;47.554;8.504;2022-07-18T08:26:41;6.47;;;2.75;;
73938;SDS011;62291;47.554;8.504;2022-07-18T08:29:07;21.52;;;3.00;;
73938;SDS011;62291;47.554;8.504;2022-07-18T08:31:33;4.43;;;2.58;;
73938;SDS011;62291;47.554;8.504;2022-07-18T08:33:59;4.50;;;2.55;;
73938;SDS011;62291;47.554;8.504;2022-07-18T08:36:24;7.07;;;2.70;;
73938;SDS011;62291;47.554;8.504;2022-07-18T08:38:51;8.80;;;2.30;;
73938;SDS011;62291;47.554;8.504;2022-07-18T08:41:17;11.82;;;3.20;;
73938;SDS011;62291;47.554;8.504;2022-07-18T08:43:46;3.83;;;2.65;;
73938;SDS011;62291;47.554;8.504;2022-07-18T08:46:14;7.40;;;2.53;;
73938;SDS011;62291;47.554;8.504;2022-07-18T08:48:44;5.10;;;2.72;;
73938;SDS011;62291;47.554;8.504;2022-07-18T08:51:09;5.53;;;3.08;;
73938;SDS011;62291;47.554;8.504;2022-07-18T08:53:35;5.60;;;2.80;;
73938;SDS011;62291;47.554;8.504;2022-07-18T08:56:03;3.45;;;2.60;;
73938;SDS011;62291;47.554;8.504;2022-07-18T08:58:29;6.03;;;2.92;;
73938;SDS011;62291;47.554;8.504;2022-07-18T09:00:54;3.70;;;2.85;;
73938;SDS011;62291;47.554;8.504;2022-07-18T09:03:23;4.65;;;2.67;;
73938;SDS011;62291;47.554;8.504;2022-07-18T09:06:01;3.85;;;3.00;;
73938;SDS011;62291;47.554;8.504;2022-07-18T09:08:32;7.60;;;2.83;;
73938;SDS011;62291;47.554;8.504;2022-07-18T09:11:03;8.25;;;2.50;;
73938;SDS011;62291;47.554;8.504;2022-07-18T09:16:06;5.07;;;3.10;;
73938;SDS011;62291;47.554;8.504;2022-07-18T09:21:04;11.27;;;3.03;;
73938;SDS011;62291;47.554;8.504;2022-07-18T09:23:35;6.15;;;2.80;;
73938;SDS011;62291;47.554;8.504;2022-07-18T09:26:05;3.33;;;3.03;;
73938;SDS011;62291;47.554;8.504;2022-07-18T09:28:48;5.30;;;2.75;;
73938;SDS011;62291;47.554;8.504;2022-07-18T09:31:19;6.07;;;2.40;;
73938;SDS011;62291;47.554;8.504;2022-07-18T09:33:52;9.40;;;2.80;;
73938;SDS011;62291;47.554;8.504;2022-07-18T09:36:21;5.53;;;3.05;;
73938;SDS011;62291;47.554;8.504;2022-07-18T09:38:47;4.18;;;2.40;;
73938;SDS011;62291;47.554;8.504;2022-07-18T09:41:13;4.82;;;2.30;;
73938;SDS011;62291;47.554;8.504;2022-07-18T09:43:39;4.65;;;2.40;;
73938;SDS011;62291;47.554;8.504;2022-07-18T09:46:06;3.38;;;2.53;;
73938;SDS011;62291;47.554;8.504;2022-07-18T09:48:32;3.05;;;2.75;;
73938;SDS011;62291;47.554;8.504;2022-07-18T09:51:02;5.70;;;2.67;;
73938;SDS011;62291;47.554;8.504;2022-07-18T09:55:59;8.73;;;2.80;;
73938;SDS011;62291;47.554;8.504;2022-07-18T09:58:30;3.58;;;2.40;;
73938;SDS011;62291;47.554;8.504;2022-07-18T10:00:58;6.57;;;3.10;;
73938;SDS011;62291;47.554;8.504;2022-07-18T10:03:25;5.15;;;2.63;;
73938;SDS011;62291;47.554;8.504;2022-07-18T10:05:52;4.20;;;2.70;;
73938;SDS011;62291;47.554;8.504;2022-07-18T10:08:20;5.05;;;2.35;;
73938;SDS011;62291;47.554;8.504;2022-07-18T10:10:48;6.57;;;2.70;;
73938;SDS011;62291;47.554;8.504;2022-07-18T10:13:15;3.80;;;2.25;;
73938;SDS011;62291;47.554;8.504;2022-07-18T10:15:42;4.75;;;2.50;;
73938;SDS011;62291;47.554;8.504;2022-07-18T10:18:10;3.70;;;2.70;;
73938;SDS011;62291;47.554;8.504;2022-07-18T10:20:39;7.25;;;2.35;;
73938;SDS011;62291;47.554;8.504;2022-07-18T10:23:21;5.13;;;2.20;;
73938;SDS011;62291;47.554;8.504;2022-07-18T10:28:32;3.45;;;2.13;;
73938;SDS011;62291;47.554;8.504;2022-07-18T10:31:14;4.85;;;2.60;;
73938;SDS011;62291;47.554;8.504;2022-07-18T10:33:45;3.83;;;2.40;;
73938;SDS011;62291;47.554;8.504;2022-07-18T10:36:14;3.63;;;2.03;;
73938;SDS011;62291;47.554;8.504;2022-07-18T10:57:42;4.90;;;2.10;;
73938;SDS011;62291;47.554;8.504;2022-07-18T11:00:15;5.18;;;2.17;;
73938;SDS011;62291;47.554;8.504;2022-07-18T11:02:45;3.55;;;2.17;;
73938;SDS011;62291;47.554;8.504;2022-07-18T11:18:27;4.88;;;2.20;;
73938;SDS011;62291;47.554;8.504;2022-07-18T11:20:55;4.97;;;2.15;;
73938;SDS011;62291;47.554;8.504;2022-07-18T11:23:25;1.92;;;1.73;;
73938;SDS011;62291;47.554;8.504;2022-07-18T11:25:52;5.07;;;2.10;;
73938;SDS011;62291;47.554;8.504;2022-07-18T11:28:20;7.25;;;1.85;;
73938;SDS011;62291;47.554;8.504;2022-07-18T11:30:46;3.00;;;2.17;;
73938;SDS011;62291;47.554;8.504;2022-07-18T11:33:29;2.63;;;1.40;;
73938;SDS011;62291;47.554;8.504;2022-07-18T11:36:05;5.68;;;1.98;;
73938;SDS011;62291;47.554;8.504;2022-07-18T11:38:33;2.42;;;1.50;;
73938;SDS011;62291;47.554;8.504;2022-07-18T11:41:10;3.15;;;1.40;;
73938;SDS011;62291;47.554;8.504;2022-07-18T11:43:36;1.77;;;1.20;;
73938;SDS011;62291;47.554;8.504;2022-07-18T11:46:09;4.65;;;1.70;;
73938;SDS011;62291;47.554;8.504;2022-07-18T11:48:40;1.70;;;1.40;;
73938;SDS011;62291;47.554;8.504;2022-07-18T11:51:17;2.80;;;1.50;;
73938;SDS011;62291;47.554;8.504;2022-07-18T11:53:48;3.08;;;1.58;;
73938;SDS011;62291;47.554;8.504;2022-07-18T11:56:15;2.35;;;1.50;;
73938;SDS011;62291;47.554;8.504;2022-07-18T11:58:43;2.88;;;1.45;;
73938;SDS011;62291;47.554;8.504;2022-07-18T12:01:10;7.13;;;1.40;;
73938;SDS011;62291;47.554;8.504;2022-07-18T12:03:37;2.17;;;1.40;;
73938;SDS011;62291;47.554;8.504;2022-07-18T12:08:51;2.75;;;1.65;;
73938;SDS011;62291;47.554;8.504;2022-07-18T12:14:00;2.00;;;1.38;;
73938;SDS011;62291;47.554;8.504;2022-07-18T12:18:54;8.80;;;1.55;;
73938;SDS011;62291;47.554;8.504;2022-07-18T12:21:24;4.95;;;1.52;;
73938;SDS011;62291;47.554;8.504;2022-07-18T12:26:48;5.15;;;1.33;;
73938;SDS011;62291;47.554;8.504;2022-07-18T12:29:21;3.97;;;1.42;;
73938;SDS011;62291;47.554;8.504;2022-07-18T12:31:47;4.18;;;1.40;;
73938;SDS011;62291;47.554;8.504;2022-07-18T12:34:14;3.22;;;1.40;;
73938;SDS011;62291;47.554;8.504;2022-07-18T12:39:35;6.03;;;1.67;;
73938;SDS011;62291;47.554;8.504;2022-07-18T12:42:01;4.55;;;2.63;;
73938;SDS011;62291;47.554;8.504;2022-07-18T12:44:27;4.85;;;1.80;;
73938;SDS011;62291;47.554;8.504;2022-07-18T12:46:53;5.30;;;1.10;;
73938;SDS011;62291;47.554;8.504;2022-07-18T12:49:20;2.95;;;1.50;;
73938;SDS011;62291;47.554;8.504;2022-07-18T12:51:46;2.65;;;1.27;;
73938;SDS011;62291;47.554;8.504;2022-07-18T12:54:15;2.90;;;1.30;;
73938;SDS011;62291;47.554;8.504;2022-07-18T12:56:41;3.15;;;1.23;;
73938;SDS011;62291;47.554;8.504;2022-07-18T12:59:07;4.68;;;1.20;;
73938;SDS011;62291;47.554;8.504;2022-07-18T13:01:33;2.75;;;1.30;;
73938;SDS011;62291;47.554;8.504;2022-07-18T13:03:59;4.85;;;1.40;;
73938;SDS011;62291;47.554;8.504;2022-07-18T13:06:25;2.75;;;1.52;;
73938;SDS011;62291;47.554;8.504;2022-07-18T13:08:50;3.05;;;1.70;;
73938;SDS011;62291;47.554;8.504;2022-07-18T13:11:16;17.27;;;2.38;;
73938;SDS011;62291;47.554;8.504;2022-07-18T13:13:42;3.13;;;1.40;;
73938;SDS011;62291;47.554;8.504;2022-07-18T13:16:08;1.85;;;1.52;;
73938;SDS011;62291;47.554;8.504;2022-07-18T13:18:33;3.03;;;1.58;;
73938;SDS011;62291;47.554;8.504;2022-07-18T13:20:59;2.00;;;1.75;;
73938;SDS011;62291;47.554;8.504;2022-07-18T13:23:24;5.40;;;1.90;;
73938;SDS011;62291;47.554;8.504;2022-07-18T13:25:50;4.85;;;1.70;;
73938;SDS011;62291;47.554;8.504;2022-07-18T13:28:16;2.33;;;1.40;;
73938;SDS011;62291;47.554;8.504;2022-07-18T13:30:41;3.45;;;1.60;;
73938;SDS011;62291;47.554;8.504;2022-07-18T13:33:07;4.68;;;3.25;;
73938;SDS011;62291;47.554;8.504;2022-07-18T13:35:33;5.13;;;1.63;;
73938;SDS011;62291;47.554;8.504;2022-07-18T13:37:59;2.30;;;1.40;;
73938;SDS011;62291;47.554;8.504;2022-07-18T13:40:25;2.83;;;1.40;;
73938;SDS011;62291;47.554;8.504;2022-07-18T13:42:51;3.33;;;1.40;;
73938;SDS011;62291;47.554;8.504;2022-07-18T13:45:16;3.22;;;1.70;;
73938;SDS011;62291;47.554;8.504;2022-07-18T13:47:42;8.65;;;1.55;;
73938;SDS011;62291;47.554;8.504;2022-07-18T13:50:09;7.88;;;1.75;;
73938;SDS011;62291;47.554;8.504;2022-07-18T13:52:36;4.13;;;1.25;;
73938;SDS011;62291;47.554;8.504;2022-07-18T13:55:02;3.30;;;1.63;;
73938;SDS011;62291;47.554;8.504;2022-07-18T13:57:28;3.22;;;1.40;;
73938;SDS011;62291;47.554;8.504;2022-07-18T13:59:54;4.40;;;1.60;;
73938;SDS011;62291;47.554;8.504;2022-07-18T14:02:20;3.00;;;1.40;;
73938;SDS011;62291;47.554;8.504;2022-07-18T14:04:46;2.40;;;1.40;;
73938;SDS011;62291;47.554;8.504;2022-07-18T14:07:11;2.50;;;1.50;;
73938;SDS011;62291;47.554;8.504;2022-07-18T14:09:42;2.80;;;1.40;;
73938;SDS011;62291;47.554;8.504;2022-07-18T14:12:10;2.95;;;1.50;;
73938;SDS011;62291;47.554;8.504;2022-07-18T14:14:36;3.33;;;1.35;;
73938;SDS011;62291;47.554;8.504;2022-07-18T14:17:02;2.42;;;1.35;;
73938;SDS011;62291;47.554;8.504;2022-07-18T14:19:27;4.18;;;1.38;;
73938;SDS011;62291;47.554;8.504;2022-07-18T14:21:53;16.45;;;1.80;;
73938;SDS011;62291;47.554;8.504;2022-07-18T14:24:19;3.53;;;1.33;;
73938;SDS011;62291;47.554;8.504;2022-07-18T14:26:44;4.22;;;1.40;;
73938;SDS011;62291;47.554;8.504;2022-07-18T14:29:10;2.92;;;1.40;;
73938;SDS011;62291;47.554;8.504;2022-07-18T14:31:36;5.22;;;1.40;;
73938;SDS011;62291;47.554;8.504;2022-07-18T14:34:01;2.22;;;1.40;;
73938;SDS011;62291;47.554;8.504;2022-07-18T14:36:27;3.28;;;1.60;;
73938;SDS011;62291;47.554;8.504;2022-07-18T14:38:54;5.18;;;1.55;;
73938;SDS011;62291;47.554;8.504;2022-07-18T14:41:20;3.33;;;1.48;;
73938;SDS011;62291;47.554;8.504;2022-07-18T14:43:46;4.30;;;1.30;;
73938;SDS011;62291;47.554;8.504;2022-07-18T14:46:11;6.25;;;1.42;;
73938;SDS011;62291;47.554;8.504;2022-07-18T14:48:37;3.97;;;1.60;;
73938;SDS011;62291;47.554;8.504;2022-07-18T14:51:03;2.35;;;1.40;;
73938;SDS011;62291;47.554;8.504;2022-07-18T14:53:29;3.50;;;1.60;;
73938;SDS011;62291;47.554;8.504;2022-07-18T14:55:55;1.92;;;1.60;;
73938;SDS011;62291;47.554;8.504;2022-07-18T14:58:20;4.53;;;1.25;;
73938;SDS011;62291;47.554;8.504;2022-07-18T15:00:46;2.80;;;1.55;;
73938;SDS011;62291;47.554;8.504;2022-07-18T15:03:13;3.38;;;1.50;;
73938;SDS011;62291;47.554;8.504;2022-07-18T15:05:38;6.28;;;1.60;;
73938;SDS011;62291;47.554;8.504;2022-07-18T15:08:04;2.10;;;1.40;;
73938;SDS011;62291;47.554;8.504;2022-07-18T15:10:30;2.50;;;1.40;;
73938;SDS011;62291;47.554;8.504;2022-07-18T15:12:55;3.35;;;1.50;;
73938;SDS011;62291;47.554;8.504;2022-07-18T15:15:21;4.25;;;1.73;;
73938;SDS011;62291;47.554;8.504;2022-07-18T15:17:47;5.03;;;1.73;;
73938;SDS011;62291;47.554;8.504;2022-07-18T15:20:12;4.43;;;2.00;;
73938;SDS011;62291;47.554;8.504;2022-07-18T15:22:38;4.68;;;1.67;;
73938;SDS011;62291;47.554;8.504;2022-07-18T15:25:04;3.88;;;2.35;;
73938;SDS011;62291;47.554;8.504;2022-07-18T15:27:30;3.55;;;1.80;;
73938;SDS011;62291;47.554;8.504;2022-07-18T15:29:56;3.05;;;1.83;;
73938;SDS011;62291;47.554;8.504;2022-07-18T15:32:22;2.10;;;1.67;;
73938;SDS011;62291;47.554;8.504;2022-07-18T15:34:47;2.38;;;1.60;;
73938;SDS011;62291;47.554;8.504;2022-07-18T15:37:13;3.47;;;1.75;;
73938;SDS011;62291;47.554;8.504;2022-07-18T15:39:39;3.40;;;1.92;;
73938;SDS011;62291;47.554;8.504;2022-07-18T15:42:04;3.63;;;1.45;;